PDT,Max TemperatureF,Mean TemperatureF,Min TemperatureF,Max Dew PointF,MeanDew PointF,Min DewpointF,Max Humidity, Mean Humidity, Min Humidity, Max Sea Level PressureIn, Mean Sea Level PressureIn, Min Sea Level PressureIn, Max VisibilityMiles, Mean VisibilityMiles, Min VisibilityMiles, Max Wind SpeedMPH, Mean Wind SpeedMPH, Max Gust SpeedMPH,PrecipitationIn, CloudCover, Events, WindDirDegrees
2012-9-1,107,94,81,48,40,31,30,17,8,29.85,29.78,29.72,10,10,10,9,5,,0.00,0,,265
2012-9-2,109,95,82,54,45,38,28,18,11,29.82,29.76,29.68,10,10,10,9,5,,0.00,0,,256
2012-9-3,107,95,84,80,71,48,77,50,23,29.88,29.81,29.76,10,9,4,16,8,17,0.00,1,,138
2012-9-4,104,94,84,79,74,66,85,58,32,29.92,29.86,29.80,10,10,9,17,9,25,0.00,0,,128
2012-9-5,104,93,84,78,67,45,80,49,20,29.88,29.81,29.73,10,10,10,12,6,,0.00,0,,225
2012-9-6,105,93,82,79,61,47,79,38,18,29.86,29.79,29.73,10,10,10,10,5,,0.00,0,,205
2012-9-7,104,92,81,75,66,60,67,42,25,29.90,29.83,29.78,10,10,10,8,3,,0.00,0,,153
2012-9-8,104,92,82,71,68,64,65,46,28,29.85,29.79,29.73,10,10,9,12,2,,0.00,0,,192
2012-9-9,100,89,78,75,68,63,90,52,29,29.90,29.81,29.72,10,8,1,30,10,43,0.02,2,Rain-Thunderstorm,138
2012-9-10,90,82,77,74,71,67,84,70,51,29.92,29.86,29.79,10,10,9,17,6,,0.00,2,Rain,134
2012-9-11,93,84,75,74,72,70,87,69,47,29.88,29.84,29.79,10,10,10,14,10,,0.00,2,,135
2012-9-12,98,88,79,75,70,66,85,58,36,29.95,29.88,29.82,10,10,10,6,3,,0.00,1,,185
2012-9-13,106,92,78,68,58,47,68,37,15,29.94,29.88,29.83,10,10,10,12,4,17,0.00,0,,343
2012-9-14,105,88,75,58,46,33,53,24,9,29.99,29.92,29.87,10,10,10,8,5,18,0.00,0,,165
2012-9-15,102,86,71,51,45,39,49,26,12,30.02,29.95,29.88,10,10,10,8,3,,0.00,0,,79
2012-9-16,102,86,73,67,56,45,49,34,25,29.98,29.91,29.83,10,10,9,15,3,,0.00,0,,182
2012-9-17,102,88,73,52,46,36,47,26,10,29.92,29.85,29.78,10,10,8,10,5,,0.00,0,,256
2012-9-18,105,89,73,56,47,42,44,25,13,29.91,29.85,29.81,10,10,10,7,4,,0.00,0,,250
2012-9-19,106,90,75,58,51,48,44,28,15,29.90,29.83,29.77,10,10,10,6,4,,0.00,0,,241
2012-9-20,108,93,78,58,49,39,46,25,10,29.86,29.80,29.74,10,10,10,8,4,,0.00,0,,265
2012-9-21,108,93,79,56,49,42,39,25,11,29.84,29.77,29.71,10,10,10,7,4,,0.00,0,,252
2012-9-22,107,93,79,56,50,43,40,26,11,29.84,29.78,29.73,10,10,9,10,5,,0.00,0,,257
2012-9-23,108,92,77,54,46,39,39,23,10,29.87,29.81,29.78,10,10,8,9,5,,0.00,0,,301
2012-9-24,106,91,77,51,44,37,33,22,11,29.88,29.80,29.73,10,10,10,17,8,26,0.00,0,,262
2012-9-25,100,86,73,50,45,40,38,25,12,29.81,29.74,29.67,10,10,10,16,10,21,0.00,0,,268
2012-9-26,99,81,64,53,45,36,56,29,11,29.78,29.74,29.70,10,10,10,10,5,,0.00,0,,242
2012-9-27,99,83,68,73,59,47,74,44,27,29.86,29.81,29.75,10,10,10,14,4,,0.00,0,,140
2012-9-28,98,85,72,71,61,51,84,51,21,29.88,29.80,29.73,10,10,9,6,3,,0.00,0,,155
2012-9-29,100,84,69,57,50,44,51,33,15,29.91,29.84,29.80,10,10,10,7,3,,0.00,0,,271
2012-9-30,107,88,70,51,45,35,47,26,9,29.91,29.85,29.79,10,10,6,12,6,,0.00,0,,270